sensor_id;sensor_type;location;lat;lon;timestamp;P1;durP1;ratioP1;P2;durP2;ratioP2
60088;SDS011;45961;53.574;55.878;2022-09-16T01:44:36;2.13;;;1.13;;
60088;SDS011;45961;53.574;55.878;2022-09-16T01:45:54;2.85;;;0.70;;
60088;SDS011;45961;53.574;55.878;2022-09-16T01:49:56;2.03;;;1.38;;
60088;SDS011;45961;53.574;55.878;2022-09-16T01:51:40;2.08;;;1.60;;
60088;SDS011;45961;53.574;55.878;2022-09-16T01:53:06;3.17;;;1.52;;
60088;SDS011;45961;53.574;55.878;2022-09-16T01:54:52;2.58;;;1.67;;
60088;SDS011;45961;53.574;55.878;2022-09-16T01:57:12;2.95;;;1.50;;
60088;SDS011;45961;53.574;55.878;2022-09-16T01:58:22;3.22;;;1.33;;
60088;SDS011;45961;53.574;55.878;2022-09-16T01:59:44;2.85;;;1.42;;
60088;SDS011;45961;53.574;55.878;2022-09-16T02:00:50;1.50;;;1.27;;
60088;SDS011;45961;53.574;55.878;2022-09-16T02:02:00;2.63;;;1.38;;
60088;SDS011;45961;53.574;55.878;2022-09-16T02:03:06;2.53;;;1.20;;
60088;SDS011;45961;53.574;55.878;2022-09-16T02:04:15;3.25;;;0.88;;
60088;SDS011;45961;53.574;55.878;2022-09-16T02:05:33;1.52;;;0.90;;
60088;SDS011;45961;53.574;55.878;2022-09-16T02:06:38;2.15;;;0.93;;
60088;SDS011;45961;53.574;55.878;2022-09-16T02:07:45;2.47;;;1.00;;
60088;SDS011;45961;53.574;55.878;2022-09-16T02:08:50;1.17;;;0.82;;
60088;SDS011;45961;53.574;55.878;2022-09-16T02:09:57;3.05;;;1.50;;
60088;SDS011;45961;53.574;55.878;2022-09-16T02:11:07;2.97;;;0.85;;
60088;SDS011;45961;53.574;55.878;2022-09-16T02:12:11;3.17;;;0.80;;
60088;SDS011;45961;53.574;55.878;2022-09-16T02:13:37;2.65;;;0.85;;
60088;SDS011;45961;53.574;55.878;2022-09-16T02:14:42;1.77;;;0.80;;
60088;SDS011;45961;53.574;55.878;2022-09-16T02:15:48;2.05;;;0.77;;
60088;SDS011;45961;53.574;55.878;2022-09-16T02:17:00;2.05;;;0.80;;
60088;SDS011;45961;53.574;55.878;2022-09-16T02:19:14;3.22;;;0.52;;
60088;SDS011;45961;53.574;55.878;2022-09-16T02:20:22;4.47;;;1.13;;
60088;SDS011;45961;53.574;55.878;2022-09-16T02:21:26;4.18;;;1.33;;
60088;SDS011;45961;53.574;55.878;2022-09-16T02:22:31;1.45;;;0.82;;
60088;SDS011;45961;53.574;55.878;2022-09-16T02:23:42;1.15;;;0.70;;
60088;SDS011;45961;53.574;55.878;2022-09-16T02:24:46;2.92;;;0.70;;
60088;SDS011;45961;53.574;55.878;2022-09-16T02:25:49;2.88;;;0.80;;
60088;SDS011;45961;53.574;55.878;2022-09-16T02:26:55;3.25;;;0.63;;
60088;SDS011;45961;53.574;55.878;2022-09-16T02:28:01;3.13;;;0.70;;
60088;SDS011;45961;53.574;55.878;2022-09-16T02:29:08;3.47;;;1.23;;
60088;SDS011;45961;53.574;55.878;2022-09-16T02:30:16;7.07;;;1.02;;
60088;SDS011;45961;53.574;55.878;2022-09-16T02:31:20;2.15;;;1.00;;
60088;SDS011;45961;53.574;55.878;2022-09-16T02:32:31;8.73;;;1.55;;
60088;SDS011;45961;53.574;55.878;2022-09-16T02:33:43;2.97;;;1.10;;
60088;SDS011;45961;53.574;55.878;2022-09-16T02:34:48;3.92;;;1.30;;
60088;SDS011;45961;53.574;55.878;2022-09-16T02:35:52;3.70;;;1.10;;
60088;SDS011;45961;53.574;55.878;2022-09-16T02:37:00;2.00;;;1.17;;
60088;SDS011;45961;53.574;55.878;2022-09-16T02:38:07;5.03;;;1.33;;
60088;SDS011;45961;53.574;55.878;2022-09-16T02:39:15;4.00;;;1.25;;
60088;SDS011;45961;53.574;55.878;2022-09-16T02:40:26;5.63;;;1.52;;
60088;SDS011;45961;53.574;55.878;2022-09-16T02:41:32;4.97;;;1.13;;
60088;SDS011;45961;53.574;55.878;2022-09-16T02:43:34;3.70;;;1.48;;
60088;SDS011;45961;53.574;55.878;2022-09-16T02:44:35;2.80;;;1.10;;
60088;SDS011;45961;53.574;55.878;2022-09-16T02:48:20;6.60;;;1.30;;
60088;SDS011;45961;53.574;55.878;2022-09-16T02:51:16;2.78;;;1.20;;
60088;SDS011;45961;53.574;55.878;2022-09-16T02:53:00;3.03;;;1.35;;
60088;SDS011;45961;53.574;55.878;2022-09-16T02:56:35;3.38;;;2.17;;
60088;SDS011;45961;53.574;55.878;2022-09-16T02:57:38;6.70;;;2.40;;
60088;SDS011;45961;53.574;55.878;2022-09-16T02:58:41;3.53;;;2.42;;
60088;SDS011;45961;53.574;55.878;2022-09-16T02:59:42;4.20;;;2.10;;
60088;SDS011;45961;53.574;55.878;2022-09-16T03:00:45;5.43;;;1.92;;
60088;SDS011;45961;53.574;55.878;2022-09-16T03:01:48;6.68;;;2.03;;
60088;SDS011;45961;53.574;55.878;2022-09-16T03:02:50;5.57;;;2.20;;
60088;SDS011;45961;53.574;55.878;2022-09-16T03:03:53;3.83;;;2.10;;
60088;SDS011;45961;53.574;55.878;2022-09-16T03:04:55;6.55;;;2.35;;
60088;SDS011;45961;53.574;55.878;2022-09-16T03:06:05;5.65;;;2.70;;
60088;SDS011;45961;53.574;55.878;2022-09-16T03:07:10;6.95;;;2.05;;
60088;SDS011;45961;53.574;55.878;2022-09-16T03:08:12;3.92;;;2.00;;
60088;SDS011;45961;53.574;55.878;2022-09-16T03:09:14;7.80;;;2.38;;
60088;SDS011;45961;53.574;55.878;2022-09-16T03:10:19;4.95;;;1.92;;
60088;SDS011;45961;53.574;55.878;2022-09-16T03:16:18;3.53;;;1.90;;
60088;SDS011;45961;53.574;55.878;2022-09-16T03:17:45;7.97;;;2.13;;
60088;SDS011;45961;53.574;55.878;2022-09-16T03:20:46;5.88;;;1.75;;
60088;SDS011;45961;53.574;55.878;2022-09-16T03:22:00;10.55;;;1.88;;
60088;SDS011;45961;53.574;55.878;2022-09-16T03:29:01;7.15;;;1.58;;
60088;SDS011;45961;53.574;55.878;2022-09-16T03:30:37;6.25;;;1.73;;
60088;SDS011;45961;53.574;55.878;2022-09-16T03:31:45;3.28;;;1.33;;
60088;SDS011;45961;53.574;55.878;2022-09-16T03:34:05;6.07;;;1.48;;
60088;SDS011;45961;53.574;55.878;2022-09-16T03:36:30;8.32;;;2.38;;
60088;SDS011;45961;53.574;55.878;2022-09-16T03:37:34;5.57;;;1.83;;
60088;SDS011;45961;53.574;55.878;2022-09-16T03:38:39;4.63;;;1.75;;
60088;SDS011;45961;53.574;55.878;2022-09-16T03:39:41;8.40;;;2.05;;
60088;SDS011;45961;53.574;55.878;2022-09-16T03:40:47;4.10;;;1.73;;
60088;SDS011;45961;53.574;55.878;2022-09-16T03:41:48;6.55;;;1.88;;
60088;SDS011;45961;53.574;55.878;2022-09-16T03:42:50;8.25;;;1.50;;
60088;SDS011;45961;53.574;55.878;2022-09-16T03:43:55;4.88;;;1.90;;
60088;SDS011;45961;53.574;55.878;2022-09-16T03:44:59;9.63;;;1.73;;
60088;SDS011;45961;53.574;55.878;2022-09-16T03:46:00;8.55;;;1.90;;
60088;SDS011;45961;53.574;55.878;2022-09-16T03:47:02;8.40;;;2.10;;
60088;SDS011;45961;53.574;55.878;2022-09-16T03:48:03;9.73;;;2.35;;
60088;SDS011;45961;53.574;55.878;2022-09-16T03:49:04;6.60;;;1.90;;
60088;SDS011;45961;53.574;55.878;2022-09-16T03:50:05;4.85;;;1.52;;
60088;SDS011;45961;53.574;55.878;2022-09-16T03:52:07;4.28;;;1.65;;
60088;SDS011;45961;53.574;55.878;2022-09-16T03:54:10;7.78;;;1.80;;
60088;SDS011;45961;53.574;55.878;2022-09-16T03:55:15;5.50;;;1.83;;
60088;SDS011;45961;53.574;55.878;2022-09-16T03:56:19;7.30;;;1.65;;
60088;SDS011;45961;53.574;55.878;2022-09-16T03:57:22;8.05;;;2.00;;
60088;SDS011;45961;53.574;55.878;2022-09-16T03:58:23;8.02;;;1.42;;
60088;SDS011;45961;53.574;55.878;2022-09-16T03:59:24;3.60;;;1.90;;
60088;SDS011;45961;53.574;55.878;2022-09-16T04:00:28;7.47;;;2.25;;
60088;SDS011;45961;53.574;55.878;2022-09-16T04:01:29;5.03;;;1.52;;
60088;SDS011;45961;53.574;55.878;2022-09-16T04:02:30;11.25;;;2.65;;
60088;SDS011;45961;53.574;55.878;2022-09-16T04:03:33;9.85;;;1.95;;
60088;SDS011;45961;53.574;55.878;2022-09-16T04:04:36;4.88;;;1.67;;
60088;SDS011;45961;53.574;55.878;2022-09-16T04:05:40;13.88;;;1.83;;
60088;SDS011;45961;53.574;55.878;2022-09-16T04:06:41;6.05;;;2.03;;
60088;SDS011;45961;53.574;55.878;2022-09-16T04:07:42;5.18;;;2.08;;
60088;SDS011;45961;53.574;55.878;2022-09-16T04:08:43;7.28;;;2.35;;
60088;SDS011;45961;53.574;55.878;2022-09-16T04:09:44;7.63;;;1.83;;
60088;SDS011;45961;53.574;55.878;2022-09-16T04:10:58;6.25;;;1.90;;
60088;SDS011;45961;53.574;55.878;2022-09-16T04:12:02;5.20;;;1.70;;
60088;SDS011;45961;53.574;55.878;2022-09-16T04:13:04;7.72;;;1.73;;
60088;SDS011;45961;53.574;55.878;2022-09-16T04:14:06;5.97;;;1.90;;
60088;SDS011;45961;53.574;55.878;2022-09-16T04:15:07;4.43;;;1.40;;
60088;SDS011;45961;53.574;55.878;2022-09-16T04:16:09;4.63;;;1.80;;
60088;SDS011;45961;53.574;55.878;2022-09-16T04:17:10;6.50;;;1.40;;
60088;SDS011;45961;53.574;55.878;2022-09-16T04:18:11;6.18;;;1.60;;
60088;SDS011;45961;53.574;55.878;2022-09-16T04:19:12;7.88;;;1.88;;
60088;SDS011;45961;53.574;55.878;2022-09-16T04:20:14;5.50;;;1.50;;
60088;SDS011;45961;53.574;55.878;2022-09-16T04:21:15;9.00;;;2.35;;
60088;SDS011;45961;53.574;55.878;2022-09-16T04:22:17;6.28;;;1.73;;
60088;SDS011;45961;53.574;55.878;2022-09-16T04:23:18;6.35;;;1.10;;
60088;SDS011;45961;53.574;55.878;2022-09-16T04:24:20;6.43;;;1.75;;
60088;SDS011;45961;53.574;55.878;2022-09-16T04:25:20;8.88;;;2.63;;
60088;SDS011;45961;53.574;55.878;2022-09-16T04:26:22;6.03;;;1.60;;
60088;SDS011;45961;53.574;55.878;2022-09-16T04:27:23;6.32;;;1.90;;
60088;SDS011;45961;53.574;55.878;2022-09-16T04:28:24;9.75;;;1.98;;
60088;SDS011;45961;53.574;55.878;2022-09-16T04:29:26;9.95;;;2.03;;
60088;SDS011;45961;53.574;55.878;2022-09-16T04:30:28;9.13;;;2.15;;
60088;SDS011;45961;53.574;55.878;2022-09-16T04:31:29;9.70;;;2.13;;
60088;SDS011;45961;53.574;55.878;2022-09-16T04:32:30;7.22;;;1.77;;
60088;SDS011;45961;53.574;55.878;2022-09-16T04:33:32;4.05;;;1.60;;
60088;SDS011;45961;53.574;55.878;2022-09-16T04:34:34;6.22;;;1.90;;
60088;SDS011;45961;53.574;55.878;2022-09-16T04:35:35;5.70;;;2.13;;
60088;SDS011;45961;53.574;55.878;2022-09-16T04:36:36;5.55;;;1.80;;
60088;SDS011;45961;53.574;55.878;2022-09-16T04:37:37;6.80;;;1.85;;
60088;SDS011;45961;53.574;55.878;2022-09-16T04:38:40;4.68;;;1.88;;
60088;SDS011;45961;53.574;55.878;2022-09-16T04:39:42;6.03;;;2.15;;
60088;SDS011;45961;53.574;55.878;2022-09-16T04:40:43;6.63;;;1.80;;
60088;SDS011;45961;53.574;55.878;2022-09-16T04:41:44;6.50;;;2.53;;
60088;SDS011;45961;53.574;55.878;2022-09-16T04:42:48;4.68;;;2.15;;
60088;SDS011;45961;53.574;55.878;2022-09-16T04:43:53;6.43;;;1.58;;
60088;SDS011;45961;53.574;55.878;2022-09-16T04:46:15;3.83;;;1.60;;
60088;SDS011;45961;53.574;55.878;2022-09-16T04:47:16;4.85;;;1.77;;
60088;SDS011;45961;53.574;55.878;2022-09-16T04:48:17;6.18;;;1.73;;
60088;SDS011;45961;53.574;55.878;2022-09-16T04:49:18;5.75;;;1.92;;
60088;SDS011;45961;53.574;55.878;2022-09-16T04:50:19;6.15;;;2.13;;
60088;SDS011;45961;53.574;55.878;2022-09-16T04:52:24;8.45;;;2.03;;
60088;SDS011;45961;53.574;55.878;2022-09-16T04:53:26;7.68;;;2.15;;
60088;SDS011;45961;53.574;55.878;2022-09-16T04:54:27;5.45;;;2.40;;
60088;SDS011;45961;53.574;55.878;2022-09-16T04:55:30;6.88;;;2.83;;
60088;SDS011;45961;53.574;55.878;2022-09-16T04:56:31;9.43;;;2.40;;
60088;SDS011;45961;53.574;55.878;2022-09-16T04:57:32;3.70;;;2.00;;
60088;SDS011;45961;53.574;55.878;2022-09-16T04:58:33;8.45;;;2.65;;
60088;SDS011;45961;53.574;55.878;2022-09-16T04:59:35;10.15;;;2.65;;
60088;SDS011;45961;53.574;55.878;2022-09-16T05:00:36;8.77;;;3.15;;
60088;SDS011;45961;53.574;55.878;2022-09-16T05:01:37;6.80;;;4.30;;
60088;SDS011;45961;53.574;55.878;2022-09-16T05:02:39;3.72;;;2.90;;
60088;SDS011;45961;53.574;55.878;2022-09-16T05:03:45;5.68;;;2.40;;
60088;SDS011;45961;53.574;55.878;2022-09-16T05:04:47;9.57;;;2.97;;
60088;SDS011;45961;53.574;55.878;2022-09-16T05:05:48;8.15;;;2.47;;
60088;SDS011;45961;53.574;55.878;2022-09-16T05:06:49;4.20;;;2.58;;
60088;SDS011;45961;53.574;55.878;2022-09-16T05:07:52;9.55;;;4.20;;
60088;SDS011;45961;53.574;55.878;2022-09-16T05:08:54;6.80;;;2.70;;
60088;SDS011;45961;53.574;55.878;2022-09-16T05:09:56;9.02;;;2.60;;
60088;SDS011;45961;53.574;55.878;2022-09-16T05:11:01;11.30;;;3.28;;
60088;SDS011;45961;53.574;55.878;2022-09-16T05:12:05;5.65;;;2.80;;
60088;SDS011;45961;53.574;55.878;2022-09-16T05:13:08;7.97;;;3.03;;
60088;SDS011;45961;53.574;55.878;2022-09-16T05:14:15;8.90;;;3.33;;
60088;SDS011;45961;53.574;55.878;2022-09-16T05:15:17;7.30;;;3.10;;
60088;SDS011;45961;53.574;55.878;2022-09-16T05:16:19;7.03;;;3.55;;
60088;SDS011;45961;53.574;55.878;2022-09-16T05:17:21;9.15;;;3.72;;
60088;SDS011;45961;53.574;55.878;2022-09-16T05:18:23;9.18;;;3.78;;
60088;SDS011;45961;53.574;55.878;2022-09-16T05:19:24;6.78;;;4.53;;
60088;SDS011;45961;53.574;55.878;2022-09-16T05:20:25;10.65;;;4.00;;
60088;SDS011;45961;53.574;55.878;2022-09-16T05:21:26;6.80;;;3.30;;
60088;SDS011;45961;53.574;55.878;2022-09-16T05:22:28;11.38;;;3.75;;
60088;SDS011;45961;53.574;55.878;2022-09-16T05:23:29;5.93;;;3.53;;
60088;SDS011;45961;53.574;55.878;2022-09-16T05:24:32;8.02;;;3.47;;
60088;SDS011;45961;53.574;55.878;2022-09-16T05:25:40;9.80;;;3.17;;
60088;SDS011;45961;53.574;55.878;2022-09-16T05:26:42;6.75;;;3.58;;
60088;SDS011;45961;53.574;55.878;2022-09-16T05:27:43;9.02;;;3.55;;
60088;SDS011;45961;53.574;55.878;2022-09-16T05:28:46;9.50;;;3.70;;
60088;SDS011;45961;53.574;55.878;2022-09-16T05:29:47;8.23;;;3.53;;
60088;SDS011;45961;53.574;55.878;2022-09-16T05:30:48;8.15;;;3.65;;
60088;SDS011;45961;53.574;55.878;2022-09-16T05:31:50;8.85;;;3.30;;
60088;SDS011;45961;53.574;55.878;2022-09-16T05:32:55;7.10;;;3.58;;
60088;SDS011;45961;53.574;55.878;2022-09-16T05:33:57;7.07;;;3.95;;
60088;SDS011;45961;53.574;55.878;2022-09-16T05:35:04;10.32;;;4.05;;
60088;SDS011;45961;53.574;55.878;2022-09-16T05:36:10;7.25;;;3.50;;
60088;SDS011;45961;53.574;55.878;2022-09-16T05:37:15;9.80;;;3.70;;
60088;SDS011;45961;53.574;55.878;2022-09-16T05:38:17;8.73;;;3.70;;
60088;SDS011;45961;53.574;55.878;2022-09-16T05:39:18;8.77;;;3.60;;
60088;SDS011;45961;53.574;55.878;2022-09-16T05:40:19;6.75;;;3.53;;
60088;SDS011;45961;53.574;55.878;2022-09-16T05:41:20;5.95;;;3.58;;
60088;SDS011;45961;53.574;55.878;2022-09-16T05:42:21;11.43;;;4.32;;
60088;SDS011;45961;53.574;55.878;2022-09-16T05:43:22;8.85;;;4.80;;
60088;SDS011;45961;53.574;55.878;2022-09-16T05:44:23;13.60;;;6.10;;
60088;SDS011;45961;53.574;55.878;2022-09-16T05:45:25;8.90;;;4.20;;
60088;SDS011;45961;53.574;55.878;2022-09-16T05:46:29;8.20;;;4.70;;
60088;SDS011;45961;53.574;55.878;2022-09-16T05:47:30;8.27;;;4.75;;
60088;SDS011;45961;53.574;55.878;2022-09-16T05:48:32;7.93;;;4.50;;
60088;SDS011;45961;53.574;55.878;2022-09-16T05:49:37;8.70;;;5.18;;
60088;SDS011;45961;53.574;55.878;2022-09-16T05:50:38;5.82;;;4.20;;
60088;SDS011;45961;53.574;55.878;2022-09-16T05:51:39;11.77;;;4.72;;
60088;SDS011;45961;53.574;55.878;2022-09-16T05:52:43;8.30;;;4.70;;
60088;SDS011;45961;53.574;55.878;2022-09-16T05:53:44;8.00;;;4.88;;
60088;SDS011;45961;53.574;55.878;2022-09-16T05:54:46;7.15;;;4.75;;
60088;SDS011;45961;53.574;55.878;2022-09-16T05:55:57;7.45;;;4.65;;
60088;SDS011;45961;53.574;55.878;2022-09-16T05:57:01;11.30;;;4.95;;
60088;SDS011;45961;53.574;55.878;2022-09-16T05:58:02;11.57;;;4.82;;
60088;SDS011;45961;53.574;55.878;2022-09-16T05:59:02;10.52;;;4.88;;
60088;SDS011;45961;53.574;55.878;2022-09-16T06:00:04;11.90;;;5.03;;
60088;SDS011;45961;53.574;55.878;2022-09-16T06:01:11;10.20;;;5.00;;
60088;SDS011;45961;53.574;55.878;2022-09-16T06:02:14;7.22;;;5.10;;
60088;SDS011;45961;53.574;55.878;2022-09-16T06:03:15;7.07;;;5.47;;
60088;SDS011;45961;53.574;55.878;2022-09-16T06:04:17;6.05;;;5.35;;
60088;SDS011;45961;53.574;55.878;2022-09-16T06:05:21;10.60;;;5.15;;
60088;SDS011;45961;53.574;55.878;2022-09-16T06:06:32;9.13;;;5.45;;
60088;SDS011;45961;53.574;55.878;2022-09-16T06:07:36;7.72;;;5.50;;
60088;SDS011;45961;53.574;55.878;2022-09-16T06:08:39;5.93;;;4.93;;
60088;SDS011;45961;53.574;55.878;2022-09-16T06:09:45;8.48;;;5.03;;
60088;SDS011;45961;53.574;55.878;2022-09-16T06:11:07;8.43;;;5.53;;
60088;SDS011;45961;53.574;55.878;2022-09-16T06:12:10;9.65;;;5.78;;
60088;SDS011;45961;53.574;55.878;2022-09-16T06:13:11;9.35;;;5.15;;
60088;SDS011;45961;53.574;55.878;2022-09-16T06:14:17;8.55;;;5.10;;
60088;SDS011;45961;53.574;55.878;2022-09-16T06:15:22;7.93;;;5.82;;
60088;SDS011;45961;53.574;55.878;2022-09-16T06:16:24;8.30;;;6.63;;
60088;SDS011;45961;53.574;55.878;2022-09-16T06:17:26;8.07;;;5.80;;
60088;SDS011;45961;53.574;55.878;2022-09-16T06:18:29;7.03;;;6.32;;
60088;SDS011;45961;53.574;55.878;2022-09-16T06:20:31;7.67;;;6.37;;
60088;SDS011;45961;53.574;55.878;2022-09-16T06:21:32;6.50;;;5.82;;
60088;SDS011;45961;53.574;55.878;2022-09-16T06:22:33;8.40;;;6.10;;
60088;SDS011;45961;53.574;55.878;2022-09-16T06:23:46;7.38;;;5.43;;
60088;SDS011;45961;53.574;55.878;2022-09-16T06:25:00;9.35;;;5.60;;
60088;SDS011;45961;53.574;55.878;2022-09-16T06:26:02;8.77;;;5.85;;
60088;SDS011;45961;53.574;55.878;2022-09-16T06:27:05;10.85;;;5.40;;
60088;SDS011;45961;53.574;55.878;2022-09-16T06:28:09;7.72;;;5.10;;
60088;SDS011;45961;53.574;55.878;2022-09-16T06:29:25;7.95;;;5.47;;
60088;SDS011;45961;53.574;55.878;2022-09-16T06:30:27;6.57;;;5.20;;
60088;SDS011;45961;53.574;55.878;2022-09-16T06:31:31;8.02;;;5.13;;
60088;SDS011;45961;53.574;55.878;2022-09-16T06:32:37;6.60;;;4.93;;
60088;SDS011;45961;53.574;55.878;2022-09-16T06:33:43;8.75;;;5.10;;
60088;SDS011;45961;53.574;55.878;2022-09-16T06:34:49;5.53;;;4.40;;
60088;SDS011;45961;53.574;55.878;2022-09-16T06:35:50;7.38;;;4.50;;
60088;SDS011;45961;53.574;55.878;2022-09-16T06:36:57;5.95;;;4.50;;
60088;SDS011;45961;53.574;55.878;2022-09-16T06:38:00;8.00;;;4.90;;
60088;SDS011;45961;53.574;55.878;2022-09-16T06:39:04;5.53;;;4.65;;
60088;SDS011;45961;53.574;55.878;2022-09-16T06:40:09;6.75;;;4.90;;
60088;SDS011;45961;53.574;55.878;2022-09-16T06:41:14;6.40;;;4.28;;
60088;SDS011;45961;53.574;55.878;2022-09-16T06:42:15;9.10;;;4.65;;
60088;SDS011;45961;53.574;55.878;2022-09-16T06:43:18;8.18;;;4.45;;
60088;SDS011;45961;53.574;55.878;2022-09-16T06:44:19;8.85;;;4.53;;
60088;SDS011;45961;53.574;55.878;2022-09-16T06:45:20;5.80;;;3.22;;
60088;SDS011;45961;53.574;55.878;2022-09-16T06:46:23;3.63;;;2.70;;
60088;SDS011;45961;53.574;55.878;2022-09-16T06:47:25;5.53;;;3.42;;
60088;SDS011;45961;53.574;55.878;2022-09-16T06:48:31;3.72;;;2.85;;
60088;SDS011;45961;53.574;55.878;2022-09-16T06:49:33;5.00;;;2.90;;
60088;SDS011;45961;53.574;55.878;2022-09-16T06:50:34;3.53;;;2.38;;
60088;SDS011;45961;53.574;55.878;2022-09-16T06:51:37;4.50;;;3.08;;
60088;SDS011;45961;53.574;55.878;2022-09-16T06:52:38;3.15;;;2.53;;
60088;SDS011;45961;53.574;55.878;2022-09-16T06:53:39;3.00;;;2.00;;
60088;SDS011;45961;53.574;55.878;2022-09-16T06:55:41;4.45;;;2.05;;
60088;SDS011;45961;53.574;55.878;2022-09-16T06:56:45;4.30;;;2.05;;
60088;SDS011;45961;53.574;55.878;2022-09-16T06:57:46;2.42;;;2.22;;
60088;SDS011;45961;53.574;55.878;2022-09-16T06:58:48;2.60;;;2.22;;
60088;SDS011;45961;53.574;55.878;2022-09-16T06:59:55;3.75;;;2.20;;
60088;SDS011;45961;53.574;55.878;2022-09-16T07:00:56;2.97;;;2.13;;
60088;SDS011;45961;53.574;55.878;2022-09-16T07:01:57;6.18;;;2.70;;
60088;SDS011;45961;53.574;55.878;2022-09-16T07:03:03;3.97;;;2.55;;
60088;SDS011;45961;53.574;55.878;2022-09-16T07:04:07;3.00;;;2.53;;
60088;SDS011;45961;53.574;55.878;2022-09-16T07:05:10;6.57;;;2.95;;
60088;SDS011;45961;53.574;55.878;2022-09-16T07:07:13;4.82;;;2.78;;
60088;SDS011;45961;53.574;55.878;2022-09-16T07:09:18;3.60;;;2.13;;
60088;SDS011;45961;53.574;55.878;2022-09-16T07:10:20;3.72;;;2.20;;
60088;SDS011;45961;53.574;55.878;2022-09-16T07:11:23;5.45;;;2.35;;
60088;SDS011;45961;53.574;55.878;2022-09-16T07:12:25;3.80;;;2.70;;
60088;SDS011;45961;53.574;55.878;2022-09-16T07:13:29;3.65;;;2.55;;
60088;SDS011;45961;53.574;55.878;2022-09-16T07:14:30;8.23;;;2.95;;
60088;SDS011;45961;53.574;55.878;2022-09-16T07:15:32;12.10;;;3.53;;
60088;SDS011;45961;53.574;55.878;2022-09-16T07:16:33;11.25;;;2.92;;
60088;SDS011;45961;53.574;55.878;2022-09-16T07:17:33;7.28;;;3.10;;
60088;SDS011;45961;53.574;55.878;2022-09-16T07:18:36;3.85;;;3.05;;
60088;SDS011;45961;53.574;55.878;2022-09-16T07:19:38;4.80;;;3.20;;
60088;SDS011;45961;53.574;55.878;2022-09-16T07:20:41;3.78;;;2.92;;
60088;SDS011;45961;53.574;55.878;2022-09-16T07:21:42;8.43;;;3.08;;
60088;SDS011;45961;53.574;55.878;2022-09-16T07:22:43;3.20;;;2.80;;
60088;SDS011;45961;53.574;55.878;2022-09-16T07:23:44;3.30;;;2.75;;
60088;SDS011;45961;53.574;55.878;2022-09-16T07:24:46;4.88;;;3.10;;
60088;SDS011;45961;53.574;55.878;2022-09-16T07:25:47;4.72;;;2.90;;
60088;SDS011;45961;53.574;55.878;2022-09-16T07:26:48;7.05;;;3.53;;
60088;SDS011;45961;53.574;55.878;2022-09-16T07:27:49;7.20;;;3.60;;
60088;SDS011;45961;53.574;55.878;2022-09-16T07:28:50;5.72;;;3.20;;
60088;SDS011;45961;53.574;55.878;2022-09-16T07:29:52;5.80;;;3.10;;
60088;SDS011;45961;53.574;55.878;2022-09-16T07:31:58;4.72;;;3.13;;
60088;SDS011;45961;53.574;55.878;2022-09-16T07:34:00;3.70;;;2.57;;
60088;SDS011;45961;53.574;55.878;2022-09-16T07:35:03;4.75;;;3.00;;
60088;SDS011;45961;53.574;55.878;2022-09-16T07:36:05;5.32;;;3.40;;
60088;SDS011;45961;53.574;55.878;2022-09-16T07:37:07;5.53;;;3.28;;
60088;SDS011;45961;53.574;55.878;2022-09-16T07:38:08;4.72;;;3.00;;
60088;SDS011;45961;53.574;55.878;2022-09-16T07:39:09;6.40;;;3.25;;
60088;SDS011;45961;53.574;55.878;2022-09-16T07:40:12;5.32;;;3.00;;
60088;SDS011;45961;53.574;55.878;2022-09-16T07:42:21;5.85;;;3.88;;
60088;SDS011;45961;53.574;55.878;2022-09-16T07:43:22;4.22;;;2.42;;
60088;SDS011;45961;53.574;55.878;2022-09-16T07:44:24;3.42;;;2.42;;
60088;SDS011;45961;53.574;55.878;2022-09-16T07:45:25;4.38;;;3.38;;
60088;SDS011;45961;53.574;55.878;2022-09-16T07:46:27;4.68;;;2.67;;
60088;SDS011;45961;53.574;55.878;2022-09-16T07:47:32;2.50;;;2.30;;
60088;SDS011;45961;53.574;55.878;2022-09-16T07:48:33;2.85;;;2.40;;
60088;SDS011;45961;53.574;55.878;2022-09-16T07:49:37;2.35;;;2.13;;
60088;SDS011;45961;53.574;55.878;2022-09-16T07:50:38;3.97;;;2.22;;
60088;SDS011;45961;53.574;55.878;2022-09-16T07:51:40;2.70;;;2.05;;
60088;SDS011;45961;53.574;55.878;2022-09-16T07:52:41;3.03;;;2.22;;
60088;SDS011;45961;53.574;55.878;2022-09-16T07:53:43;5.25;;;2.88;;
60088;SDS011;45961;53.574;55.878;2022-09-16T07:54:44;3.58;;;2.00;;
60088;SDS011;45961;53.574;55.878;2022-09-16T07:55:46;3.72;;;2.00;;
60088;SDS011;45961;53.574;55.878;2022-09-16T07:56:49;4.40;;;2.70;;
60088;SDS011;45961;53.574;55.878;2022-09-16T07:57:50;2.85;;;2.25;;
60088;SDS011;45961;53.574;55.878;2022-09-16T07:58:52;2.72;;;2.28;;
60088;SDS011;45961;53.574;55.878;2022-09-16T07:59:54;2.45;;;2.25;;
60088;SDS011;45961;53.574;55.878;2022-09-16T08:00:56;6.03;;;2.20;;
60088;SDS011;45961;53.574;55.878;2022-09-16T08:01:58;4.38;;;2.15;;
60088;SDS011;45961;53.574;55.878;2022-09-16T08:02:59;1.98;;;1.50;;
60088;SDS011;45961;53.574;55.878;2022-09-16T08:04:00;3.38;;;1.90;;
60088;SDS011;45961;53.574;55.878;2022-09-16T08:05:02;3.60;;;1.95;;
60088;SDS011;45961;53.574;55.878;2022-09-16T08:06:04;2.55;;;2.10;;
60088;SDS011;45961;53.574;55.878;2022-09-16T08:07:07;2.47;;;2.20;;
60088;SDS011;45961;53.574;55.878;2022-09-16T08:08:12;3.25;;;1.90;;
60088;SDS011;45961;53.574;55.878;2022-09-16T08:10:16;2.35;;;1.30;;
60088;SDS011;45961;53.574;55.878;2022-09-16T08:11:17;1.30;;;1.20;;
60088;SDS011;45961;53.574;55.878;2022-09-16T08:12:19;2.45;;;1.25;;
60088;SDS011;45961;53.574;55.878;2022-09-16T08:13:22;3.50;;;1.30;;
60088;SDS011;45961;53.574;55.878;2022-09-16T08:14:24;3.28;;;1.45;;
60088;SDS011;45961;53.574;55.878;2022-09-16T08:15:25;1.63;;;1.40;;
60088;SDS011;45961;53.574;55.878;2022-09-16T08:16:26;1.52;;;1.42;;
60088;SDS011;45961;53.574;55.878;2022-09-16T08:17:27;3.17;;;1.85;;
60088;SDS011;45961;53.574;55.878;2022-09-16T08:18:28;1.95;;;1.58;;
60088;SDS011;45961;53.574;55.878;2022-09-16T08:20:35;3.22;;;1.80;;
60088;SDS011;45961;53.574;55.878;2022-09-16T08:21:36;4.30;;;2.00;;
60088;SDS011;45961;53.574;55.878;2022-09-16T08:22:38;3.88;;;1.88;;
60088;SDS011;45961;53.574;55.878;2022-09-16T08:23:39;1.88;;;1.70;;
60088;SDS011;45961;53.574;55.878;2022-09-16T08:24:41;2.58;;;1.83;;
60088;SDS011;45961;53.574;55.878;2022-09-16T08:25:42;5.03;;;2.10;;
60088;SDS011;45961;53.574;55.878;2022-09-16T08:26:44;3.65;;;2.10;;
60088;SDS011;45961;53.574;55.878;2022-09-16T08:27:45;2.33;;;1.90;;
60088;SDS011;45961;53.574;55.878;2022-09-16T08:28:47;3.17;;;1.95;;
60088;SDS011;45961;53.574;55.878;2022-09-16T08:29:51;5.55;;;2.08;;
60088;SDS011;45961;53.574;55.878;2022-09-16T08:30:52;2.05;;;1.80;;
60088;SDS011;45961;53.574;55.878;2022-09-16T08:31:53;1.77;;;1.63;;
60088;SDS011;45961;53.574;55.878;2022-09-16T08:32:56;2.58;;;2.33;;
60088;SDS011;45961;53.574;55.878;2022-09-16T08:33:58;4.65;;;1.90;;
60088;SDS011;45961;53.574;55.878;2022-09-16T08:34:59;2.42;;;1.70;;
60088;SDS011;45961;53.574;55.878;2022-09-16T08:36:14;2.47;;;2.22;;
60088;SDS011;45961;53.574;55.878;2022-09-16T08:37:22;2.00;;;1.67;;
60088;SDS011;45961;53.574;55.878;2022-09-16T08:38:24;3.53;;;2.13;;
60088;SDS011;45961;53.574;55.878;2022-09-16T08:39:27;2.33;;;1.65;;
60088;SDS011;45961;53.574;55.878;2022-09-16T08:40:30;2.45;;;1.83;;
60088;SDS011;45961;53.574;55.878;2022-09-16T08:41:38;5.25;;;1.83;;
60088;SDS011;45961;53.574;55.878;2022-09-16T08:43:34;1.73;;;1.63;;
60088;SDS011;45961;53.574;55.878;2022-09-16T08:44:41;3.35;;;2.22;;
60088;SDS011;45961;53.574;55.878;2022-09-16T08:45:53;1.73;;;1.63;;
60088;SDS011;45961;53.574;55.878;2022-09-16T08:47:04;1.90;;;1.33;;